createdAt,value
2019-04-27T00:04:04.105Z,7.40
2019-04-27T00:09:50.179Z,7.53
2019-04-27T00:14:54.401Z,8.73
2019-04-27T00:20:26.390Z,8.57
2019-04-27T00:25:29.829Z,9.23
2019-04-27T00:30:35.555Z,8.77
2019-04-27T00:35:48.229Z,8.47
2019-04-27T00:40:55.654Z,8.80
2019-04-27T00:45:58.575Z,8.97
2019-04-27T00:51:00.742Z,9.90
2019-04-27T00:56:16.198Z,10.57
2019-04-27T01:01:27.631Z,10.17
2019-04-27T01:06:30.901Z,10.13
2019-04-27T01:11:33.404Z,10.00
2019-04-27T01:16:35.748Z,10.87
2019-04-27T01:21:39.650Z,10.90
2019-04-27T01:27:01.911Z,11.60
2019-04-27T01:32:06.295Z,11.80
2019-04-27T01:37:09.563Z,13.63
2019-04-27T01:42:12.335Z,14.57
2019-04-27T01:47:14.497Z,14.67
2019-04-27T01:52:19.282Z,15.77
2019-04-27T01:57:21.740Z,15.97
2019-04-27T02:02:39.897Z,16.27
2019-04-27T02:07:43.339Z,15.30
2019-04-27T02:12:45.529Z,14.17
2019-04-27T02:17:50.693Z,14.27
2019-04-27T02:22:53.236Z,12.70
2019-04-27T02:28:01.271Z,10.50
2019-04-27T02:33:25.778Z,11.23
2019-04-27T02:38:30.278Z,10.43
2019-04-27T02:43:40.996Z,9.93
2019-04-27T02:48:55.598Z,9.50
2019-04-27T02:53:52.708Z,9.17
2019-04-27T02:58:56.169Z,8.40
2019-04-27T03:04:00.258Z,8.73
2019-04-27T03:09:05.702Z,7.77
2019-04-27T03:14:34.304Z,7.67
2019-04-27T03:19:40.055Z,6.90
2019-04-27T03:25:00.944Z,6.97
2019-04-27T03:30:05.577Z,6.33
2019-04-27T03:35:12.318Z,6.33
2019-04-27T03:40:12.916Z,6.27
2019-04-27T03:45:15.386Z,7.33
2019-04-27T03:50:23.961Z,7.87
2019-04-27T03:55:30.706Z,8.53
2019-04-27T04:00:33.851Z,8.97
2019-04-27T04:05:36.227Z,9.00
2019-04-27T04:10:44.656Z,9.67
2019-04-27T04:16:07.608Z,9.40
2019-04-27T04:21:09.613Z,9.67
2019-04-27T04:26:12.213Z,10.03
2019-04-27T04:31:14.908Z,9.70
2019-04-27T04:36:19.933Z,10.87
2019-04-27T04:41:30.365Z,10.97
2019-04-27T04:47:00.267Z,11.27
2019-04-27T04:52:02.277Z,12.10
2019-04-27T04:57:04.581Z,12.83
2019-04-27T05:02:06.907Z,12.23
2019-04-27T05:07:09.904Z,14.20
2019-04-27T05:12:12.346Z,14.53
2019-04-27T05:17:15.376Z,16.73
2019-04-27T05:22:19.424Z,16.00
2019-04-27T05:27:22.267Z,16.20
2019-04-27T05:32:25.256Z,17.80
2019-04-27T05:37:29.932Z,18.10
2019-04-27T05:42:31.967Z,19.57
2019-04-27T05:47:51.762Z,19.40
2019-04-27T05:52:53.331Z,19.47
2019-04-27T05:57:55.781Z,20.10
2019-04-27T06:02:59.029Z,19.40
2019-04-27T06:08:02.155Z,19.20
2019-04-27T06:13:04.638Z,18.57
2019-04-27T06:18:07.270Z,19.00
2019-04-27T06:23:09.401Z,18.50
2019-04-27T06:28:12.956Z,17.10
2019-04-27T06:33:28.046Z,19.40
2019-04-27T06:38:20.630Z,19.53
2019-04-27T06:43:22.917Z,22.07
2019-04-27T06:48:25.270Z,22.27
2019-04-27T06:53:29.158Z,22.47
2019-04-27T06:58:31.495Z,23.53
2019-04-27T07:03:33.720Z,23.33
2019-04-27T07:08:35.772Z,24.33
2019-04-27T07:13:39.047Z,22.77
2019-04-27T07:18:41.760Z,21.90
2019-04-27T07:24:03.592Z,21.83
2019-04-27T07:29:06.116Z,21.00
2019-04-27T07:34:09.322Z,20.80
2019-04-27T07:39:11.955Z,22.43
2019-04-27T07:44:38.973Z,22.77
2019-04-27T07:49:41.668Z,23.80
2019-04-27T07:54:43.882Z,24.17
2019-04-27T07:59:46.751Z,25.23
2019-04-27T08:04:50.522Z,26.77
2019-04-27T08:09:53.149Z,26.87
2019-04-27T08:14:55.973Z,27.03
2019-04-27T08:19:59.546Z,28.30
2019-04-27T08:25:02.218Z,28.57
2019-04-27T08:30:17.313Z,29.10
2019-04-27T08:35:19.618Z,29.37
2019-04-27T08:40:22.866Z,30.10
2019-04-27T08:45:26.078Z,29.63
2019-04-27T08:50:28.861Z,29.13
2019-04-27T08:55:31.350Z,29.80
2019-04-27T09:00:33.870Z,28.63
2019-04-27T09:05:36.683Z,24.77
2019-04-27T09:10:44.788Z,23.57
2019-04-27T09:15:55.045Z,24.77
2019-04-27T09:20:59.592Z,20.83
2019-04-27T09:26:01.767Z,23.30
2019-04-27T09:31:05.061Z,19.83
2019-04-27T09:36:07.875Z,18.30
2019-04-27T09:41:10.098Z,17.80
2019-04-27T09:46:12.956Z,13.30
2019-04-27T09:51:16.281Z,14.90
2019-04-27T09:56:18.980Z,15.73
2019-04-27T10:01:21.209Z,17.30
2019-04-27T10:06:24.282Z,14.17
2019-04-27T10:11:26.944Z,16.50
2019-04-27T10:16:30.382Z,17.50
2019-04-27T10:21:33.181Z,18.50
2019-04-27T10:26:36.228Z,17.60
2019-04-27T10:31:39.266Z,15.43
2019-04-27T10:36:41.410Z,14.67
2019-04-27T10:41:43.961Z,17.07
2019-04-27T10:46:46.481Z,16.27
2019-04-27T10:51:48.926Z,13.77
2019-04-27T10:56:51.656Z,13.23
2019-04-27T11:01:56.003Z,13.23
2019-04-27T11:07:05.498Z,13.07
2019-04-27T11:12:09.327Z,13.07
2019-04-27T11:17:11.916Z,14.77
2019-04-27T11:22:15.978Z,13.30
2019-04-27T11:27:18.465Z,13.23
2019-04-27T11:32:20.990Z,13.70
2019-04-27T11:37:28.601Z,12.23
2019-04-27T11:42:31.097Z,10.67
2019-04-27T11:47:34.062Z,9.33
2019-04-27T11:52:36.959Z,13.63
2019-04-27T11:57:39.181Z,13.70
2019-04-27T12:02:41.731Z,10.23
2019-04-27T12:07:47.496Z,9.93
2019-04-27T12:12:49.129Z,8.73
2019-04-27T12:17:51.681Z,9.90
2019-04-27T12:22:53.883Z,11.23
2019-04-27T12:28:06.170Z,8.17
2019-04-27T12:33:08.464Z,9.17
2019-04-27T12:38:11.340Z,9.00
2019-04-27T12:43:13.762Z,10.00
2019-04-27T12:48:16.257Z,9.13
2019-04-27T12:53:30.469Z,7.30
2019-04-27T12:58:42.354Z,6.77
2019-04-27T13:03:46.285Z,6.47
2019-04-27T13:08:49.128Z,6.60
2019-04-27T13:13:51.669Z,6.97
2019-04-27T13:18:53.862Z,6.20
2019-04-27T13:24:03.997Z,5.87
2019-04-27T13:29:00.955Z,5.90
2019-04-27T13:34:03.142Z,5.50
2019-04-27T13:39:06.853Z,5.47
2019-04-27T13:44:09.449Z,5.47
2019-04-27T13:49:28.354Z,6.27
2019-04-27T13:54:30.868Z,4.93
2019-04-27T13:59:33.157Z,5.30
2019-04-27T14:04:36.238Z,5.20
2019-04-27T14:09:39.314Z,4.97
2019-04-27T14:14:43.071Z,4.63
2019-04-27T14:19:45.374Z,5.23
2019-04-27T14:24:48.767Z,5.17
2019-04-27T14:29:51.501Z,5.60
2019-04-27T14:34:55.149Z,5.90
2019-04-27T14:39:57.940Z,6.07
2019-04-27T14:45:05.300Z,5.63
2019-04-27T14:50:08.964Z,4.63
2019-04-27T14:55:12.252Z,4.57
2019-04-27T15:00:16.447Z,3.80
2019-04-27T15:05:19.375Z,3.80
2019-04-27T15:10:21.877Z,4.77
2019-04-27T15:15:24.308Z,4.10
2019-04-27T15:20:33.066Z,4.10
2019-04-27T15:25:43.495Z,4.10
2019-04-27T15:30:54.737Z,4.53
2019-04-27T15:36:03.975Z,4.40
2019-04-27T15:41:13.932Z,4.30
2019-04-27T15:46:18.460Z,5.07
2019-04-27T15:51:21.307Z,4.47
2019-04-27T15:56:23.736Z,4.60
2019-04-27T16:01:29.666Z,4.97
2019-04-27T16:06:31.250Z,4.13
2019-04-27T16:11:34.315Z,3.83
2019-04-27T16:16:38.184Z,4.30
2019-04-27T16:21:47.079Z,4.03
2019-04-27T16:26:51.068Z,4.93
2019-04-27T16:31:50.507Z,5.40
2019-04-27T16:36:53.525Z,5.33
2019-04-27T16:41:56.460Z,5.27
2019-04-27T16:46:58.904Z,4.67
2019-04-27T16:52:01.208Z,4.90
2019-04-27T16:57:05.502Z,5.03
2019-04-27T17:02:08.340Z,5.07
2019-04-27T17:07:11.270Z,4.93
2019-04-27T17:12:13.925Z,4.80
2019-04-27T17:17:32.141Z,6.17
2019-04-27T17:22:35.720Z,5.43
2019-04-27T17:27:48.136Z,6.23
2019-04-27T17:33:01.503Z,6.20
2019-04-27T17:38:08.698Z,6.13
2019-04-27T17:43:10.560Z,5.87
2019-04-27T17:48:14.350Z,5.77
2019-04-27T17:53:18.715Z,5.67
2019-04-27T17:58:21.730Z,5.70
2019-04-27T18:03:23.939Z,5.80
2019-04-27T18:08:28.989Z,5.90
2019-04-27T18:13:31.869Z,6.50
2019-04-27T18:18:50.412Z,5.83
2019-04-27T18:23:55.418Z,6.07
2019-04-27T18:29:01.465Z,7.20
2019-04-27T18:34:03.240Z,7.43
2019-04-27T18:39:12.275Z,6.60
2019-04-27T18:44:13.673Z,8.37
2019-04-27T18:49:27.197Z,8.93
2019-04-27T18:54:33.082Z,9.93
2019-04-27T18:59:35.666Z,6.17
2019-04-27T19:04:38.167Z,6.27
2019-04-27T19:09:40.808Z,5.90
2019-04-27T19:14:42.997Z,4.00
2019-04-27T19:19:45.465Z,3.20
2019-04-27T19:24:48.162Z,2.80
2019-04-27T19:29:56.017Z,2.47
2019-04-27T19:34:59.329Z,2.77
2019-04-27T19:40:02.284Z,2.17
2019-04-27T19:45:07.661Z,2.30
2019-04-27T19:50:10.942Z,1.77
2019-04-27T19:55:14.187Z,1.77
2019-04-27T20:00:43.691Z,2.10
2019-04-27T20:05:46.367Z,2.17
2019-04-27T20:10:48.857Z,1.93
2019-04-27T20:15:51.770Z,2.00
2019-04-27T20:20:53.947Z,2.20
2019-04-27T20:25:56.548Z,2.20
2019-04-27T20:30:59.627Z,1.80
2019-04-27T20:36:02.338Z,2.20
2019-04-27T20:41:04.824Z,1.83
2019-04-27T20:46:07.095Z,2.10
2019-04-27T20:51:11.382Z,1.80
2019-04-27T20:56:13.954Z,2.20
2019-04-27T21:01:16.132Z,2.23
2019-04-27T21:06:27.746Z,6.50
2019-04-27T21:11:46.134Z,2.70
2019-04-27T21:16:48.635Z,2.70
2019-04-27T21:21:52.240Z,2.50
2019-04-27T21:26:54.770Z,3.10
2019-04-27T21:31:57.438Z,2.80
2019-04-27T21:37:01.058Z,3.07
2019-04-27T21:42:03.559Z,2.97
2019-04-27T21:47:06.541Z,3.23
2019-04-27T21:52:16.788Z,3.13
2019-04-27T21:57:18.957Z,3.30
2019-04-27T22:02:21.820Z,2.80
2019-04-27T22:07:25.116Z,2.80
2019-04-27T22:12:27.648Z,3.17
2019-04-27T22:17:30.471Z,2.90
2019-04-27T22:22:41.316Z,3.10
2019-04-27T22:27:43.728Z,3.50
2019-04-27T22:32:45.966Z,3.13
2019-04-27T22:37:48.377Z,3.23
2019-04-27T22:43:11.927Z,3.20
2019-04-27T22:48:14.605Z,3.57
2019-04-27T22:53:17.711Z,3.50
2019-04-27T22:58:21.787Z,3.60
2019-04-27T23:03:31.183Z,3.40
2019-04-27T23:08:33.717Z,3.40
2019-04-27T23:13:36.367Z,3.60
2019-04-27T23:18:38.537Z,3.63
2019-04-27T23:23:41.441Z,3.73
2019-04-27T23:28:43.736Z,4.07
2019-04-27T23:33:47.803Z,3.90
2019-04-27T23:38:51.121Z,3.67
2019-04-27T23:43:53.523Z,3.60
2019-04-27T23:48:56.475Z,3.90
2019-04-27T23:53:59.505Z,3.80
2019-04-27T23:59:02.056Z,4.67
